Time;durP1;ratioP1;P1;durP2;ratioP2;P2;SDS_P1;SDS_P2;PMS_P1;PMS_P2;Temp;Humidity;BMP_temperature;BMP_pressure;BME280_temperature;BME280_humidity;BME280_pressure;Samples;Min_cycle;Max_cycle;Signal;HPM_P1;HPM_P2
2023/12/05 00:01:04;;;;;;;4.28;3.47;;;;;;;-144.05;74.97;57025.13;4985031;28;20054;-79
2023/12/05 00:03:30;;;;;;;4.40;3.78;;;;;;;-144.05;74.86;57016.63;4998165;28;20030;-82
2023/12/05 00:05:56;;;;;;;4.72;3.45;;;;;;;-144.05;74.89;57044.25;4978932;28;20035;-83
2023/12/05 00:08:22;;;;;;;4.50;2.90;;;;;;;-144.05;74.56;57031.50;4979973;28;20037;-83
2023/12/05 00:10:49;;;;;;;5.63;3.20;;;;;;;-144.05;74.77;57006.00;4974208;28;20030;-83
2023/12/05 00:13:18;;;;;;;3.80;2.80;;;;;;;-144.05;73.41;57006.00;4975225;28;20057;-84
2023/12/05 00:15:44;;;;;;;5.47;3.33;;;;;;;-144.05;73.93;57014.50;4973375;28;20031;-82
2023/12/05 00:18:11;;;;;;;5.07;3.75;;;;;;;-144.05;73.23;57006.00;4990920;28;20126;-84
2023/12/05 00:20:37;;;;;;;3.85;3.17;;;;;;;-144.05;72.26;57008.13;4991575;28;20123;-83
2023/12/05 00:23:03;;;;;;;4.97;3.10;;;;;;;-144.05;72.24;57029.38;4983436;28;20034;-83
2023/12/05 00:25:29;;;;;;;4.65;3.38;;;;;;;-144.05;71.61;57040.00;4971426;28;20223;-83
2023/12/05 00:27:56;;;;;;;5.47;3.53;;;;;;;-144.05;71.89;56982.66;4975410;28;20035;-83
2023/12/05 00:30:23;;;;;;;4.43;3.08;;;;;;;-144.05;72.29;57003.88;4974889;28;20031;-81
2023/12/05 00:32:49;;;;;;;5.00;3.70;;;;;;;-144.05;72.38;57010.25;4981201;28;20081;-83
2023/12/05 00:35:16;;;;;;;3.97;3.28;;;;;;;-144.05;71.80;56993.25;4981411;28;20513;-83
2023/12/05 00:37:42;;;;;;;5.32;3.42;;;;;;;-144.05;72.24;57008.13;4973651;28;20123;-82
2023/12/05 00:40:09;;;;;;;5.07;3.38;;;;;;;-144.05;71.63;57023.00;4973873;28;20031;-83
2023/12/05 00:42:35;;;;;;;4.82;3.15;;;;;;;-144.05;71.57;56993.25;4987387;28;20034;-83
2023/12/05 00:45:02;;;;;;;4.88;3.70;;;;;;;-144.05;71.90;56991.13;4972251;28;20495;-81
2023/12/05 00:47:30;;;;;;;5.20;2.80;;;;;;;-144.05;72.30;57031.50;4972096;28;20038;-84
2023/12/05 00:49:57;;;;;;;3.90;3.17;;;;;;;-144.05;71.31;56997.50;4980834;28;20495;-82
2023/12/05 00:52:23;;;;;;;6.35;4.20;;;;;;;-144.05;71.34;56976.28;4974053;28;20037;-84
2023/12/05 00:54:49;;;;;;;4.63;3.40;;;;;;;-144.05;71.62;57006.00;4973399;28;20031;-84
2023/12/05 00:57:15;;;;;;;4.63;3.10;;;;;;;-144.05;71.21;57001.75;4972181;28;20041;-85
2023/12/05 00:59:41;;;;;;;3.85;3.17;;;;;;;-144.05;71.77;56989.00;4974718;28;20058;-86
2023/12/05 01:02:09;;;;;;;3.90;2.70;;;;;;;-144.05;72.28;57023.00;4982663;28;20057;-86
2023/12/05 01:04:36;;;;;;;4.63;3.25;;;;;;;-144.05;71.54;56986.91;4987679;28;20106;-86
2023/12/05 01:07:04;;;;;;;4.57;2.92;;;;;;;-144.05;73.07;57018.75;4988064;28;20382;-84
2023/12/05 01:09:30;;;;;;;5.32;3.40;;;;;;;-144.05;72.60;57031.50;4976054;28;20111;-85
2023/12/05 01:11:56;;;;;;;3.60;3.13;;;;;;;-144.05;72.06;56991.13;4989176;28;20027;-81
2023/12/05 01:14:23;;;;;;;3.70;3.00;;;;;;;-144.05;72.11;57012.38;4973612;28;20034;-82
2023/12/05 01:16:49;;;;;;;4.57;3.28;;;;;;;-144.05;72.44;57020.88;4987635;28;20122;-82
2023/12/05 01:19:15;;;;;;;4.60;2.97;;;;;;;-144.05;73.39;57003.88;4972704;28;20053;-83
2023/12/05 01:21:41;;;;;;;4.95;3.42;;;;;;;-144.05;74.96;57025.13;4963770;28;20124;-83
2023/12/05 01:24:07;;;;;;;5.53;3.38;;;;;;;-144.05;75.17;56995.38;4972875;28;20168;-84
2023/12/05 01:26:34;;;;;;;5.70;3.63;;;;;;;-144.05;74.53;57023.00;4972590;28;20042;-84
2023/12/05 01:29:02;;;;;;;4.30;2.65;;;;;;;-144.05;74.51;56999.63;4985277;28;20035;-82
2023/12/05 01:31:28;;;;;;;4.70;3.35;;;;;;;-144.05;74.79;57025.13;4971502;28;20117;-83
2023/12/05 01:33:55;;;;;;;4.57;3.08;;;;;;;-144.05;76.37;57029.38;4987509;28;20154;-83
2023/12/05 01:36:21;;;;;;;6.40;3.75;;;;;;;-144.05;75.73;57040.00;4972139;28;20031;-82
2023/12/05 01:38:47;;;;;;;6.07;3.90;;;;;;;-144.05;75.28;57031.50;4971319;28;20093;-85
2023/12/05 01:41:13;;;;;;;6.28;3.45;;;;;;;-144.05;75.39;57029.38;4972788;28;20393;-82
2023/12/05 01:43:40;;;;;;;5.28;3.60;;;;;;;-144.05;75.06;56989.00;4978230;28;20031;-83
2023/12/05 01:46:07;;;;;;;5.32;3.78;;;5.70;99.90;;;-144.05;75.27;57029.38;4971177;28;20031;-83
2023/12/05 01:48:33;;;;;;;4.28;2.75;;;;;;;-144.05;75.26;57029.38;4987407;28;20081;-83
2023/12/05 01:51:06;;;;;;;3.65;2.90;;;;;;;-144.05;75.11;57016.63;4972629;28;20038;-83
2023/12/05 01:53:41;;;;;;;3.33;2.75;;;1.50;99.90;;;-144.05;74.57;56999.63;4979797;28;20511;-83
2023/12/05 01:56:11;;;;;;;4.28;3.15;;;;;;;-144.05;75.61;57025.13;4988645;28;20461;-83
2023/12/05 01:58:38;;;;;;;3.83;2.92;;;;;;;-144.05;76.12;57012.38;4995134;28;20086;-85
2023/12/05 02:01:07;;;;;;;5.85;3.22;;;;;;;-144.05;78.05;57018.75;4989935;28;20464;-84
2023/12/05 02:03:35;;;;;;;4.50;3.20;;;;;;;-144.05;77.46;56995.38;4972374;28;20066;-82
2023/12/05 02:06:02;;;;;;;5.18;3.97;;;;;;;-144.05;76.90;57052.75;5005860;28;20039;-84
2023/12/05 02:08:30;;;;;;;5.22;3.33;;;;;;;-144.05;76.55;56999.63;4972951;28;20093;-84
2023/12/05 02:10:57;;;;;;;3.83;3.08;;;;;;;-144.05;76.38;57033.63;4972656;28;20062;-83
2023/12/05 02:13:23;;;;;;;6.03;3.60;;;;;;;-144.05;77.29;57001.75;4986942;28;20118;-82
2023/12/05 02:16:30;;;;;;;4.57;2.88;;;;;;;-144.05;77.25;57018.75;4979078;28;20464;-83
2023/12/05 02:19:31;;;;;;;3.90;2.40;;;;;;;-144.05;77.34;56999.63;4969004;28;20078;-84
2023/12/05 02:22:07;;;;;;;5.28;3.33;;;;;;;-144.05;76.77;56976.28;4972933;28;20058;-82
2023/12/05 02:25:06;;;;;;;3.47;3.15;;;;;;;-144.05;76.15;57018.75;4972119;28;20031;-86
2023/12/05 02:27:41;;;;;;;4.80;3.28;;;;;;;-144.05;76.13;57029.38;4987227;28;20027;-82
2023/12/05 02:30:09;;;;;;;;;;;5.60;99.90;;;-144.05;77.48;57037.88;4973040;28;20097;-86
2023/12/05 02:32:36;;;;;;;5.55;3.17;;;;;;;-144.05;77.25;56997.50;4975828;28;19933;-82
2023/12/05 02:35:05;;;;;;;4.68;3.03;;;;;;;-144.05;77.29;57052.75;4974217;28;20027;-84
2023/12/05 02:38:09;;;;;;;5.05;3.42;;;;;;;-144.05;77.84;57029.38;4975185;28;20027;-82
2023/12/05 02:40:50;;;;;;;5.25;3.63;;;;;;;-144.05;77.59;57031.50;4975537;28;20038;-85
2023/12/05 02:43:25;;;;;;;4.57;3.33;;;;;;;-144.05;77.53;57003.88;4981201;28;20042;-81
2023/12/05 02:45:55;;;;;;;3.60;2.78;;;;;;;-144.05;77.83;57033.63;4968395;28;20077;-83
2023/12/05 02:48:23;;;;;;;4.85;3.40;;;;;;;-144.05;76.86;57023.00;4975826;28;20118;-82
2023/12/05 02:50:52;;;;;;;5.43;3.42;;;;;;;-144.05;76.69;57042.13;4974107;28;20104;-83
2023/12/05 02:53:18;;;;;;;7.35;3.53;;;;;;;-144.05;76.94;57035.75;4974663;28;20027;-80
2023/12/05 02:55:48;;;;;;;4.30;2.72;;;;;;;-144.05;77.23;57008.13;4974300;28;20085;-82
2023/12/05 02:58:14;;;;;;;4.50;3.28;;;;;;;-144.05;77.75;57033.63;4981873;28;20049;-83
2023/12/05 03:00:41;;;;;;;4.13;3.10;;;;;;;-144.05;77.78;57018.75;4973858;28;20475;-83
2023/12/05 03:03:08;;;;;;;3.63;2.78;;;;;;;-144.05;77.87;56995.38;4974018;28;20037;-82
2023/12/05 03:05:34;;;;;;;4.35;3.10;;;;;;;-144.05;78.07;57027.25;4973486;28;20503;-84
2023/12/05 03:08:00;;;;;;;4.85;2.63;;;;;;;-144.05;77.96;57050.63;4981858;28;20146;-82
2023/12/05 03:10:26;;;;;;;3.72;2.80;;;;;;;-144.05;77.16;57016.63;4981659;28;20481;-83
2023/12/05 03:12:53;;;;;;;4.13;2.72;;;;;;;-144.05;76.44;57082.47;4975086;28;20045;-85
2023/12/05 03:15:19;;;;;;;4.78;3.42;;;;;;;-144.05;76.56;57046.38;4973575;28;20027;-83
2023/12/05 03:17:45;;;;;;;4.55;2.60;;;;;;;-144.05;76.66;57027.25;4989871;28;20060;-82
2023/12/05 03:20:11;;;;;;;3.60;2.50;;;;;;;-144.05;76.28;57012.38;4974984;28;20031;-82
2023/12/05 03:22:38;;;;;;;3.55;2.72;;;;;;;-144.05;75.87;57046.38;4974567;28;20410;-82
2023/12/05 03:25:05;;;;;;;3.80;3.03;;;;;;;-144.05;75.92;57031.50;4974488;28;20027;-83
2023/12/05 03:27:31;;;;;;;4.15;2.80;;;;;;;-144.05;76.19;57040.00;4973029;28;20027;-82
2023/12/05 03:29:57;;;;;;;3.53;2.80;;;;;;;-144.05;76.77;57071.84;4974533;28;20027;-83
2023/12/05 03:32:24;;;;;;;3.33;2.38;;;;;;;-144.05;77.65;57042.13;4987049;28;20485;-83
2023/12/05 03:34:50;;;;;;;4.80;2.58;;;;;;;-144.05;78.51;57048.50;4973660;28;20034;-82
2023/12/05 03:37:16;;;;;;;3.67;2.47;;;;;;;-144.05;78.46;57056.97;4974932;28;20134;-83
2023/12/05 03:39:42;;;;;;;3.75;3.00;;;;;;;-144.05;79.41;57027.25;4973679;28;20489;-83
2023/12/05 03:42:08;;;;;;;3.80;2.80;;;;;;;-144.05;78.78;57027.25;4988013;28;20029;-86
2023/12/05 03:44:35;;;;;;;3.97;2.95;;;;;;;-144.05;78.45;57006.00;4975087;28;20042;-85
2023/12/05 03:47:01;;;;;;;3.00;2.58;;;;;;;-144.05;79.31;57046.38;4986654;28;20035;-84
2023/12/05 03:49:27;;;;;;;4.00;2.85;;;;;;;-144.05;79.38;57056.97;4971373;28;20038;-86
2023/12/05 03:51:53;;;;;;;3.92;2.45;;;;;;;-144.05;79.62;57012.38;4984273;28;20035;-81
2023/12/05 03:54:20;;;;;;;5.88;2.58;;;;;;;-144.05;79.08;57027.25;4999008;28;20023;-80
2023/12/05 03:56:46;;;;;;;3.80;2.60;;;;;;;-144.05;79.22;57052.75;4981378;28;20494;-85
2023/12/05 03:59:12;;;;;;;4.63;3.10;;;;;;;-144.05;79.19;57025.13;4981281;28;20624;-85
2023/12/05 04:01:38;;;;;;;3.95;2.88;;;;;;;-144.05;79.33;57044.25;4974301;28;20040;-84
2023/12/05 04:04:05;;;;;;;6.85;3.10;;;;;;;-144.05;80.63;57029.38;4972860;28;20121;-80
2023/12/05 04:06:31;;;;;;;3.83;2.83;;;;;;;-144.05;79.80;57018.75;4972773;28;20035;-84
2023/12/05 04:08:57;;;;;;;4.70;2.97;;;;;;;-144.05;81.96;57050.63;4980870;28;20030;-84
2023/12/05 04:11:33;;;;;;;4.60;3.20;;;;;;;-144.05;81.31;57018.75;4981063;28;20476;-83
2023/12/05 04:14:00;;;;;;;3.60;2.83;;;;;;;-144.05;81.07;57020.88;4972980;28;20130;-84
2023/12/05 04:16:27;;;;;;;3.95;2.78;;;;;;;-144.05;81.95;57059.09;4972466;28;20035;-82
2023/12/05 04:18:54;;;;;;;5.82;3.25;;;;;;;-144.05;80.86;56986.91;4972626;28;20033;-84
2023/12/05 04:21:20;;;;;;;4.80;2.97;;;;;;;-144.05;80.37;57027.25;4978549;28;20034;-82
2023/12/05 04:23:47;;;;;;;3.58;2.80;;;5.00;99.90;;;-144.05;79.64;56972.03;4974814;28;20041;-85
2023/12/05 04:26:19;;;;;;;5.20;3.45;;;;;;;-144.05;79.80;57014.50;4981377;28;20143;-84
2023/12/05 04:28:46;;;;;;;5.28;3.60;;;;;;;-144.05;80.14;57042.13;4961471;28;20031;-83
2023/12/05 04:31:13;;;;;;;4.80;3.22;;;3.70;99.90;;;-144.05;79.79;57016.63;4969537;28;20053;-82
2023/12/05 04:33:40;;;;;;;4.50;2.90;;;;;;;-144.05;80.02;57025.13;4980597;28;20032;-83
2023/12/05 04:36:08;;;;;;;5.00;3.25;;;;;;;-144.05;80.04;57008.13;4972293;28;20042;-84
2023/12/05 04:38:37;;;;;;;4.43;3.28;;;5.80;99.90;;;-144.05;79.78;56995.38;4973399;28;20077;-84
2023/12/05 04:41:04;;;;;;;5.60;3.47;;;;;;;-144.05;79.50;57025.13;4980322;28;20026;-84
2023/12/05 04:43:31;;;;;;;4.38;3.35;;;;;;;-144.05;79.40;57018.75;4988507;28;20043;-85
2023/12/05 04:45:57;;;;;;;5.72;4.03;;;;;;;-144.05;79.79;57010.25;4981557;28;20015;-86
2023/12/05 04:48:24;;;;;;;5.72;3.85;;;;;;;-144.05;80.89;57012.38;4983785;28;20054;-84
2023/12/05 04:50:50;;;;;;;5.72;4.15;;;;;;;-144.05;80.44;57035.75;4989677;28;20097;-83
2023/12/05 04:53:16;;;;;;;5.47;3.80;;;;;;;-144.05;80.33;57023.00;4971507;28;20038;-82
2023/12/05 04:55:42;;;;;;;6.13;3.80;;;;;;;-144.05;80.06;57035.75;4972138;28;20078;-84
2023/12/05 04:58:09;;;;;;;4.80;3.85;;;;;;;-144.05;79.90;57040.00;4972465;28;20030;-83
2023/12/05 05:00:36;;;;;;;4.72;3.33;;;;;;;-144.05;79.93;57033.63;4988002;28;20030;-86
2023/12/05 05:03:04;;;;;;;4.43;3.70;;;;;;;-144.05;80.00;57044.25;4998489;28;20039;-87
2023/12/05 05:05:30;;;;;;;6.25;3.72;;;;;;;-144.05;80.23;57052.75;4980940;28;20114;-87
2023/12/05 05:07:56;;;;;;;6.18;4.13;;;;;;;-144.05;81.08;57040.00;4986840;28;20507;-84
2023/12/05 05:10:22;;;;;;;4.55;3.78;;;;;;;-144.05;79.92;57003.88;4981814;28;20030;-84
2023/12/05 05:12:49;;;;;;;7.05;3.85;;;;;;;-144.05;80.36;57010.25;4974137;28;20511;-84
2023/12/05 05:15:15;;;;;;;6.30;3.88;;;;;;;-144.05;80.89;57001.75;4973783;28;20089;-83
2023/12/05 05:17:41;;;;;;;6.53;4.00;;;;;;;-144.05;80.82;56997.50;4973716;28;20038;-83
2023/12/05 05:20:08;;;;;;;6.60;4.38;;;;;;;-144.05;80.27;57006.00;4980558;28;20039;-84
2023/12/05 05:22:35;;;;;;;6.05;4.15;;;;;;;-144.05;80.73;57033.63;4973211;28;20037;-82
2023/12/05 05:25:01;;;;;;;6.35;4.05;;;;;;;-144.05;80.52;57012.38;4988097;28;20400;-85
2023/12/05 05:27:28;;;;;;;5.18;3.97;;;;;;;-144.05;80.55;57014.50;4972320;28;20069;-83
2023/12/05 05:29:54;;;;;;;9.73;4.40;;;;;;;-144.05;80.97;57027.25;4986964;28;20055;-84
2023/12/05 05:32:23;;;;;;;5.05;3.75;;;;;;;-144.05;81.40;57031.50;4969343;28;20396;-83
2023/12/05 05:34:49;;;;;;;4.40;3.55;;;;;;;-144.05;80.94;57012.38;4972001;28;20575;-86
2023/12/05 05:37:17;;;;;;;4.60;3.72;;;;;;;-144.05;82.31;57042.13;4993243;28;20042;-84
2023/12/05 05:39:43;;;;;;;6.35;3.83;;;;;;;-144.05;81.44;57027.25;4980921;28;20034;-83
2023/12/05 05:42:10;;;;;;;6.88;3.70;;;;;;;-144.05;80.78;57035.75;5001834;28;20027;-82
2023/12/05 05:44:36;;;;;;;5.57;3.95;;;;;;;-144.05;81.00;57008.13;4970948;28;20046;-83
2023/12/05 05:47:02;;;;;;;5.82;3.55;;;;;;;-144.05;81.49;57025.13;4971219;28;20042;-83
2023/12/05 05:49:29;;;;;;;5.57;3.80;;;;;;;-144.05;82.12;57044.25;4988038;28;20034;-81
2023/12/05 05:51:55;;;;;;;5.05;3.88;;;;;;;-144.05;82.50;57031.50;4966275;28;20102;-82
2023/12/05 05:54:21;;;;;;;7.03;3.75;;;;;;;-144.05;82.47;57035.75;4973497;28;20106;-84
2023/12/05 05:56:48;;;;;;;4.70;3.42;;;;;;;-144.05;81.94;56997.50;4984126;28;20026;-82
2023/12/05 05:59:14;;;;;;;8.05;3.92;;;;;;;-144.05;82.54;57006.00;4979893;28;20165;-84
2023/12/05 06:01:40;;;;;;;6.43;3.80;;;;;;;-144.05;82.62;57018.75;4987010;28;21526;-84
2023/12/05 06:04:07;;;;;;;5.43;3.55;;;;;;;-144.05;81.85;57029.38;4977725;28;20057;-83
2023/12/05 06:06:33;;;;;;;4.28;3.45;;;;;;;-144.05;81.99;57025.13;4981465;28;20488;-85
2023/12/05 06:08:59;;;;;;;7.05;4.10;;;;;;;-144.05;82.52;57010.25;4996184;28;20114;-84
2023/12/05 06:11:25;;;;;;;6.43;3.20;;;;;;;-144.05;83.36;57020.88;4978047;28;20053;-84
2023/12/05 06:13:52;;;;;;;5.82;3.63;;;;;;;-144.05;82.21;57014.50;4978217;28;20070;-84
2023/12/05 06:16:18;;;;;;;6.28;3.70;;;;;;;-144.05;81.87;57016.63;4993901;28;20035;-84
2023/12/05 06:18:44;;;;;;;5.90;3.63;;;;;;;-144.05;81.91;56978.41;4994917;28;20090;-84
2023/12/05 06:21:11;;;;;;;5.50;3.55;;;;;;;-144.05;81.68;57020.88;4994966;28;20030;-86
2023/12/05 06:23:40;;;;;;;5.18;3.78;;;;;;;-144.05;82.41;57025.13;4997779;28;20133;-81
2023/12/05 06:26:07;;;;;;;5.65;3.75;;;;;;;-144.05;82.54;57027.25;4987475;28;20035;-84
2023/12/05 06:28:33;;;;;;;6.07;3.65;;;;;;;-144.05;82.07;57040.00;4980919;28;20037;-84
2023/12/05 06:31:00;;;;;;;5.65;3.45;;;;;;;-144.05;82.21;57010.25;4989101;28;20050;-84
2023/12/05 06:33:26;;;;;;;6.40;3.97;;;;;;;-144.05;83.10;57027.25;4963682;28;20035;-85
2023/12/05 06:35:53;;;;;;;4.30;3.33;;;;;;;-144.05;82.99;57016.63;4977774;28;20042;-85
2023/12/05 06:38:19;;;;;;;5.18;3.60;;;;;;;-144.05;82.94;57003.88;4993684;28;20022;-83
2023/12/05 06:40:45;;;;;;;5.15;3.58;;;;;;;-144.05;83.61;57016.63;4978620;28;20117;-80
2023/12/05 06:43:12;;;;;;;7.07;4.13;;;;;;;-144.05;83.68;57014.50;4977624;28;20169;-82
2023/12/05 06:45:39;;;;;;;5.25;3.55;;;;;;;-144.05;82.82;57025.13;4978378;28;20023;-82
2023/12/05 06:48:05;;;;;;;6.03;3.97;;;;;;;-144.05;83.16;57029.38;4979835;28;20511;-84
2023/12/05 06:50:32;;;;;;;5.90;3.80;;;;;;;-144.05;83.39;57023.00;4977047;28;20027;-84
2023/12/05 06:52:59;;;;;;;5.03;3.88;;;;;;;-144.05;83.26;57012.38;4993950;28;20442;-86
2023/12/05 06:55:26;;;;;;;6.18;3.83;;;;;;;-144.05;83.80;57016.63;4979549;28;20127;-81
2023/12/05 06:57:53;;;;;;;6.22;3.85;;;;;;;-144.05;83.85;57012.38;4976881;28;20034;-83
2023/12/05 07:00:19;;;;;;;5.68;4.10;;;;;;;-144.05;83.51;57008.13;4985744;28;20476;-84
2023/12/05 07:02:46;;;;;;;8.52;4.45;;;;;;;-144.05;83.33;57006.00;4980698;28;20035;-83
2023/12/05 07:05:12;;;;;;;6.68;4.68;;;;;;;-144.05;83.42;57016.63;4995072;28;20058;-85
2023/12/05 07:07:38;;;;;;;7.68;3.85;;;;;;;-144.05;83.28;57020.88;4978616;28;20470;-82
2023/12/05 07:10:05;;;;;;;6.03;4.28;;;;;;;-144.05;83.64;57027.25;4979124;28;20037;-83
2023/12/05 07:12:32;;;;;;;6.47;4.25;;;;;;;-144.05;83.86;57027.25;4987359;28;20035;-83
2023/12/05 07:14:59;;;;;;;8.65;5.05;;;;;;;-144.05;83.71;57016.63;4986944;28;20019;-83
2023/12/05 07:17:25;;;;;;;7.90;4.32;;;;;;;-144.05;83.49;56984.78;4976155;28;20445;-84
2023/12/05 07:19:51;;;;;;;12.93;4.45;;;;;;;-144.05;84.04;57012.38;4977997;28;20054;-83
2023/12/05 07:22:18;;;;;;;6.38;4.00;;;;;;;-144.05;83.86;57020.88;4978583;28;20484;-84
2023/12/05 07:24:44;;;;;;;7.30;4.43;;;;;;;-144.05;83.63;57035.75;4994156;28;20054;-83
2023/12/05 07:27:10;;;;;;;8.77;4.97;;;;;;;-144.05;83.74;57025.13;4980773;28;20449;-80
2023/12/05 07:29:36;;;;;;;10.68;5.20;;;;;;;-144.05;83.42;57003.88;4997717;28;20054;-84
2023/12/05 07:32:03;;;;;;;8.13;5.47;;;;;;;-144.05;83.88;57016.63;4978197;28;20026;-83
2023/12/05 07:34:29;;;;;;;11.30;5.00;;;;;;;-144.05;84.69;57048.50;4985009;28;20057;-85
2023/12/05 07:36:56;;;;;;;9.25;5.18;;;;;;;-144.05;84.91;57014.50;4978530;28;20200;-85
2023/12/05 07:39:22;;;;;;;10.20;4.97;;;;;;;-144.05;84.24;57010.25;4996153;28;20031;-85
2023/12/05 07:41:49;;;;;;;7.93;4.55;;;;;;;-144.05;83.92;57010.25;4992313;28;20058;-83
2023/12/05 07:44:17;;;;;;;8.57;5.00;;;;;;;-144.05;83.80;57003.88;4997788;28;20068;-85
2023/12/05 07:46:45;;;;;;;10.68;4.95;;;;;;;-144.05;84.01;56997.50;4982315;28;20034;-85
2023/12/05 07:49:11;;;;;;;6.95;4.38;;;;;;;-144.05;83.76;56982.66;4990031;28;20015;-81
2023/12/05 07:51:38;;;;;;;9.40;5.50;;;;;;;-144.05;83.38;56989.00;4979755;28;20440;-84
2023/12/05 07:54:05;;;;;;;10.32;5.25;;;;;;;-144.05;84.72;57023.00;4978166;28;20031;-84
2023/12/05 07:56:32;;;;;;;7.95;5.30;;;;;;;-144.05;83.92;56976.28;4977059;28;20023;-83
2023/12/05 07:58:58;;;;;;;6.47;4.50;;;;;;;-144.05;82.83;57001.75;4978343;28;20504;-81
2023/12/05 08:01:24;;;;;;;7.28;5.22;;;;;;;-144.05;82.86;57006.00;4985158;28;20027;-84
2023/12/05 08:03:50;;;;;;;7.50;4.75;;;;;;;-144.05;83.51;57018.75;4993577;28;20066;-83
2023/12/05 08:06:18;;;;;;;8.07;5.45;;;;;;;-144.05;84.55;56989.00;4958462;28;20040;-84
2023/12/05 08:08:45;;;;;;;7.85;5.28;;;;;;;-144.05;83.09;56984.78;4988492;28;20122;-83
2023/12/05 08:11:11;;;;;;;6.53;4.50;;;;;;;-144.05;83.44;57003.88;4978184;28;20027;-84
2023/12/05 08:13:37;;;;;;;5.80;4.65;;;;;;;-144.05;83.34;57027.25;4967003;28;20031;-81
2023/12/05 08:16:04;;;;;;;8.80;4.32;;;;;;;-144.05;83.33;56963.53;4980538;28;20090;-83
2023/12/05 08:18:31;;;;;;;6.32;4.22;;;;;;;-144.05;82.56;57012.38;4983948;28;20026;-84
2023/12/05 08:20:57;;;;;;;5.43;3.90;;;;;;;-144.05;82.47;56972.03;4975401;28;20035;-83
2023/12/05 08:23:28;;;;;;;6.47;4.00;;;;;;;-144.05;82.07;56991.13;4977787;28;20057;-86
2023/12/05 08:25:54;;;;;;;5.65;4.00;;;;;;;-144.05;81.50;56993.25;4975713;28;20440;-82
2023/12/05 08:28:20;;;;;;;5.10;3.38;;;;;;;-144.05;81.37;56986.91;4986959;28;20042;-85
2023/12/05 08:30:47;;;;;;;6.80;4.13;;;;;;;-144.05;82.02;56974.16;4969728;28;20030;-81
2023/12/05 08:33:15;;;;;;;4.72;3.00;;;;;;;-144.05;82.29;57003.88;4983642;28;20069;-83
2023/12/05 08:35:41;;;;;;;4.35;3.40;;;;;;;-144.05;81.57;56976.28;4984939;28;20202;-82
2023/12/05 08:38:08;;;;;;;6.15;3.17;;;;;;;-144.05;81.09;56963.53;4975471;28;20023;-84
2023/12/05 08:40:34;;;;;;;8.63;3.70;;;;;;;-144.05;81.29;57001.75;4979219;28;20106;-85
2023/12/05 08:43:03;;;;;;;4.90;3.22;;;6.90;99.90;;;-144.05;81.43;56997.50;4984133;28;20035;-81
2023/12/05 08:45:29;;;;;;;4.05;3.03;;;;;;;-144.05;80.90;56963.53;4974894;28;20401;-86
2023/12/05 08:47:56;;;;;;;4.38;2.47;;;;;;;-144.05;79.57;56972.03;4977888;28;20034;-82
2023/12/05 08:50:22;;;;;;;4.93;2.67;;;;;;;-144.05;78.15;56957.16;4977158;28;20037;-85
2023/12/05 08:52:48;;;;;;;4.25;2.10;;;;;;;-144.05;77.61;56999.63;4983572;28;20381;-83
2023/12/05 08:55:15;;;;;;;3.42;2.08;;;;;;;-144.05;77.43;56997.50;4991391;28;20106;-81
2023/12/05 08:57:42;;;;;;;5.15;2.97;;;;;;;-144.05;77.48;56989.00;4975150;28;20034;-83
2023/12/05 09:00:08;;;;;;;3.47;2.63;;;;;;;-144.05;77.53;56965.66;4981950;28;20066;-87
2023/12/05 09:02:35;;;;;;;5.60;2.13;;;;;;;-144.05;77.34;56997.50;4985989;28;20346;-85
2023/12/05 09:05:02;;;;;;;4.20;2.20;;;;;;;-144.05;77.58;56986.91;4987460;28;20027;-86
2023/12/05 09:07:28;;;;;;;3.45;1.92;;;;;;;-144.05;78.31;56986.91;4994222;28;20197;-84
2023/12/05 09:09:54;;;;;;;2.15;1.80;;;;;;;-144.05;77.96;56991.13;4982676;28;20031;-80
2023/12/05 09:12:22;;;;;;;4.05;2.55;;;;;;;-144.05;77.79;56986.91;4976254;28;20035;-81
2023/12/05 09:14:48;;;;;;;4.03;1.50;;;;;;;-144.05;77.95;56948.66;4976049;28;20081;-85
2023/12/05 09:17:15;;;;;;;2.20;1.50;;;7.60;99.90;;;-144.05;77.86;56986.91;4975250;28;20027;-83
2023/12/05 09:19:42;;;;;;;3.03;2.00;;;;;;;-144.05;77.40;56986.91;4993478;28;20086;-83
2023/12/05 09:22:08;;;;;;;3.45;2.05;;;;;;;-144.05;77.13;57008.13;4975805;28;20031;-83
2023/12/05 09:24:34;;;;;;;2.65;1.77;;;;;;;-144.05;76.10;56984.78;4975353;28;20034;-83
2023/12/05 09:27:00;;;;;;;4.10;1.30;;;;;;;-144.05;75.16;56961.41;4979568;28;20039;-81
2023/12/05 09:29:27;;;;;;;3.30;1.65;;;;;;;-144.05;75.21;56993.25;4976424;28;20031;-85
2023/12/05 09:31:54;;;;;;;5.07;1.98;;;;;;;-144.05;75.52;56984.78;4979653;28;20031;-84
2023/12/05 09:34:20;;;;;;;2.53;1.80;;;;;;;-144.05;76.05;56984.78;4986199;28;20102;-78
2023/12/05 09:36:46;;;;;;;3.75;2.00;;;;;;;-144.05;75.30;56969.91;4997844;28;20066;-81
2023/12/05 09:39:12;;;;;;;2.58;1.42;;;;;;;-144.05;74.38;56991.13;4980472;28;20127;-85
2023/12/05 09:41:52;;;;;;;3.92;1.83;;;5.20;99.90;;;-144.05;72.95;56978.41;4980264;28;20038;-85
2023/12/05 09:44:21;;;;;;;2.85;1.80;;;8.70;99.90;;;-144.05;72.00;56995.38;4981631;28;20042;-87
2023/12/05 09:46:55;;;;;;;2.63;1.50;;;;;;;-144.05;72.58;56963.53;4969411;28;20031;-85
2023/12/05 09:49:29;;;;;;;2.83;1.73;;;8.20;99.90;;;-144.05;71.67;56948.66;4985063;28;20031;-82
2023/12/05 09:51:57;;;;;;;2.63;1.42;;;;;;;-144.05;72.76;56976.28;4993207;28;20031;-83
2023/12/05 09:54:25;;;;;;;2.42;1.20;;;8.60;99.90;;;-144.05;72.13;56980.53;4990648;28;20049;-83
2023/12/05 09:56:57;;;;;;;2.00;1.30;;;;;;;-144.05;73.25;56965.66;4971170;28;20425;-82
2023/12/05 09:59:23;;;;;;;2.65;1.17;;;;;;;-144.05;72.92;56989.00;4985100;28;20494;-83
2023/12/05 10:01:55;;;;;;;5.82;1.50;;;;;;;-144.05;72.13;56976.28;4980483;28;20046;-83
2023/12/05 10:04:27;;;;;;;3.50;1.13;;;;;;;-144.05;71.33;56991.13;4977789;28;20034;-83
2023/12/05 10:06:57;;;;;;;1.95;1.23;;;;;;;-144.05;70.97;57006.00;4978871;28;20485;-81
2023/12/05 10:09:27;;;;;;;2.17;1.00;;;;;;;-144.05;70.71;56984.78;4983489;28;20015;-84
2023/12/05 10:11:55;;;;;;;1.27;0.90;;;;;;;-144.05;69.53;56997.50;4990149;28;20057;-82
2023/12/05 10:14:21;;;;;;;2.00;1.50;;;;;;;-144.05;70.09;56986.91;4981968;28;20034;-82
2023/12/05 10:16:53;;;;;;;2.58;1.08;;;;;;;-144.05;69.91;56963.53;4989383;28;20023;-84
2023/12/05 10:19:21;;;;;;;0.90;0.75;;;8.90;99.90;;;-144.05;69.77;56984.78;4991900;28;20561;-83
2023/12/05 10:21:55;;;;;;;1.88;1.05;;;8.90;99.90;;;-144.05;69.05;56948.66;4972359;28;20023;-84
2023/12/05 10:24:22;;;;;;;1.88;0.95;;;;;;;-144.05;69.70;56952.91;4971963;28;20031;-82
2023/12/05 10:26:48;;;;;;;1.38;1.00;;;;;;;-144.05;69.62;56948.66;4978688;28;20062;-83
2023/12/05 10:29:16;;;;;;;1.02;0.75;;;;;;;-144.05;69.75;56986.91;4977840;28;20026;-82
2023/12/05 10:31:43;;;;;;;0.55;0.52;;;8.80;99.90;;;-144.05;68.91;56978.41;4979267;28;20034;-83
2023/12/05 10:34:09;;;;;;;0.73;0.60;;;;;;;-144.05;70.00;56976.28;4976679;28;20114;-85
2023/12/05 10:36:36;;;;;;;1.08;0.75;;;;;;;-144.05;69.45;56989.00;4976066;28;20041;-85
2023/12/05 10:39:06;;;;;;;0.75;0.50;;;8.60;99.90;;;-144.05;69.48;56957.16;4976674;28;20129;-83
2023/12/05 10:41:32;;;;;;;2.03;0.50;;;;;;;-144.05;70.32;56982.66;4983897;28;20492;-84
2023/12/05 10:44:01;;;;;;;3.10;0.98;;;;;;;-144.05;70.05;56974.16;4978568;28;20078;-85
2023/12/05 10:46:27;;;;;;;0.73;0.70;;;;;;;-144.05;69.45;56997.50;4979990;28;20113;-81
2023/12/05 10:48:55;;;;;;;0.93;0.40;;;;;;;-144.05;70.03;56980.53;4973088;28;20066;-81
2023/12/05 10:51:26;;;;;;;1.83;0.90;;;;;;;-144.05;69.73;56984.78;4988765;28;20035;-82
2023/12/05 10:53:57;;;;;;;0.82;0.70;;;;;;;-144.05;70.22;56950.78;4997204;28;20027;-83
2023/12/05 10:56:24;;;;;;;2.13;1.00;;;;;;;-144.05;69.99;56984.78;4987958;28;20026;-86
2023/12/05 10:58:52;;;;;;;0.60;0.50;;;;;;;-144.05;69.55;56950.78;4992371;28;20031;-85
2023/12/05 11:01:21;;;;;;;0.73;0.60;;;;;;;-144.05;70.34;56984.78;4978205;28;20077;-85
2023/12/05 11:03:49;;;;;;;1.80;0.77;;;;;;;-144.05;69.77;56978.41;4979311;28;20027;-82
2023/12/05 11:06:16;;;;;;;2.05;0.80;;;;;;;-144.05;70.58;56999.63;4978229;28;20490;-85
2023/12/05 11:08:42;;;;;;;0.50;0.50;;;;;;;-144.05;70.76;57001.75;4978412;28;20121;-84
2023/12/05 11:11:12;;;;;;;2.30;0.52;;;8.50;99.90;;;-144.05;71.00;56965.66;4978449;28;20031;-82
2023/12/05 11:13:40;;;;;;;0.50;0.40;;;;;;;-144.05;69.77;56969.91;4977348;28;20023;-83